Cairo, New York
Current Conditions -  °F | °C
As of 11:51 AM on Saturday 22 Nov 2014 (Local Time) from KALB Reporting Station
Scattered Clouds Scattered Clouds  
Wind Chill: 22°   Ceiling: Unl
Heat Index: 32°   Visibility: 10mi
Dew Point: 13°   Wind: 14mph
Humidity: 45%   Direction: 160°SSE
Pressure: 30.25"   Gusts: NA
Location:  42.31°N, 74.01°W
Report Text: KALB 221651Z 16012KT 10SM FEW140 FEW190 SCT260 00/M11 A3025 RMK AO2 PRESFR SLP248 T00001106
Loading
Personal Weather Stations






























Interactive Weather Map New forecast layout! Learn more

10-Day Weather Forecast

Advertisements
Track Severe Weather on mobile